createdAt,value
2022-08-01T00:00:21.518Z,1.60
2022-08-01T00:03:45.195Z,1.30
2022-08-01T00:07:08.698Z,1.23
2022-08-01T00:10:32.560Z,1.53
2022-08-01T00:13:59.951Z,1.40
2022-08-01T00:17:25.307Z,1.30
2022-08-01T00:20:48.870Z,1.30
2022-08-01T00:24:14.430Z,1.53
2022-08-01T00:27:39.951Z,1.60
2022-08-01T00:31:04.417Z,1.60
2022-08-01T00:34:29.346Z,1.40
2022-08-01T00:37:53.474Z,1.40
2022-08-01T00:41:16.936Z,1.67
2022-08-01T00:44:42.008Z,1.50
2022-08-01T00:48:06.181Z,1.27
2022-08-01T00:51:31.368Z,1.40
2022-08-01T00:54:55.016Z,1.60
2022-08-01T00:58:19.181Z,1.50
2022-08-01T01:01:46.498Z,1.27
2022-08-01T01:05:11.403Z,1.27
2022-08-01T01:08:43.942Z,1.50
2022-08-01T01:12:24.240Z,1.37
2022-08-01T01:15:57.230Z,1.20
2022-08-01T01:19:32.199Z,1.50
2022-08-01T01:23:22.367Z,1.33
2022-08-01T01:26:56.557Z,1.40
2022-08-01T01:30:23.599Z,1.17
2022-08-01T01:33:49.004Z,1.43
2022-08-01T01:37:20.127Z,1.30
2022-08-01T01:40:48.457Z,1.27
2022-08-01T01:44:14.126Z,1.27
2022-08-01T01:47:41.393Z,1.70
2022-08-01T01:51:06.930Z,1.40
2022-08-01T01:54:35.039Z,1.20
2022-08-01T01:58:00.171Z,1.30
2022-08-01T02:01:58.135Z,1.20
2022-08-01T02:05:15.154Z,1.30
2022-08-01T02:08:42.413Z,1.40
2022-08-01T02:12:09.246Z,1.37
2022-08-01T02:15:39.178Z,1.30
2022-08-01T02:19:23.266Z,1.27
2022-08-01T02:22:53.541Z,1.30
2022-08-01T02:26:20.377Z,1.40
2022-08-01T02:29:48.942Z,1.20
2022-08-01T02:33:18.368Z,1.30
2022-08-01T02:36:42.701Z,1.27
2022-08-01T02:40:13.043Z,1.63
2022-08-01T02:43:45.365Z,1.30
2022-08-01T02:47:22.502Z,1.40
2022-08-01T02:50:50.462Z,1.20
2022-08-01T02:54:15.721Z,1.47
2022-08-01T02:57:51.489Z,1.40
2022-08-01T03:01:20.554Z,1.60
2022-08-01T03:04:45.819Z,1.20
2022-08-01T03:08:14.741Z,1.33
2022-08-01T03:11:43.664Z,1.27
2022-08-01T03:15:12.671Z,1.33
2022-08-01T03:18:37.874Z,1.60
2022-08-01T03:22:08.149Z,1.27
2022-08-01T03:25:34.665Z,1.40
2022-08-01T03:29:07.301Z,1.40
2022-08-01T03:32:33.381Z,1.20
2022-08-01T03:35:58.714Z,1.60
2022-08-01T03:39:32.324Z,1.30
2022-08-01T03:43:01.851Z,1.40
2022-08-01T03:46:33.968Z,0.97
2022-08-01T03:50:01.391Z,1.23
2022-08-01T03:53:32.079Z,1.40
2022-08-01T03:56:56.645Z,1.20
2022-08-01T04:00:20.579Z,1.30
2022-08-01T04:03:44.785Z,1.30
2022-08-01T04:07:24.154Z,1.10
2022-08-01T04:10:48.015Z,1.47
2022-08-01T04:14:14.217Z,1.33
2022-08-01T04:17:38.024Z,1.20
2022-08-01T04:21:01.541Z,1.20
2022-08-01T04:24:30.954Z,1.10
2022-08-01T04:27:57.151Z,1.27
2022-08-01T04:31:21.565Z,1.23
2022-08-01T04:34:48.528Z,1.10
2022-08-01T04:38:15.138Z,1.10
2022-08-01T04:41:42.359Z,1.37
2022-08-01T04:45:09.624Z,1.33
2022-08-01T04:48:36.368Z,1.10
2022-08-01T04:52:01.092Z,1.40
2022-08-01T04:55:24.982Z,1.30
2022-08-01T04:59:10.179Z,1.10
2022-08-01T05:02:43.451Z,1.20
2022-08-01T05:06:07.517Z,1.10
2022-08-01T05:09:31.729Z,1.03
2022-08-01T05:12:55.281Z,1.10
2022-08-01T05:16:20.127Z,1.07
2022-08-01T05:19:43.851Z,1.00
2022-08-01T05:23:13.608Z,0.93
2022-08-01T05:26:48.333Z,1.10
2022-08-01T05:30:12.666Z,1.10
2022-08-01T05:33:37.485Z,1.30
2022-08-01T05:37:01.172Z,1.40
2022-08-01T05:40:24.958Z,1.30
2022-08-01T05:43:48.759Z,1.20
2022-08-01T05:47:12.596Z,1.10
2022-08-01T05:50:37.461Z,1.20
2022-08-01T05:54:01.758Z,1.20
2022-08-01T05:57:25.250Z,1.10
2022-08-01T06:00:48.717Z,1.00
2022-08-01T06:04:12.224Z,0.90
2022-08-01T06:07:38.512Z,1.10
2022-08-01T06:11:03.475Z,1.17
2022-08-01T06:14:26.982Z,1.10
2022-08-01T06:17:50.555Z,0.90
2022-08-01T06:21:14.632Z,1.03
2022-08-01T06:24:39.475Z,0.80
2022-08-01T06:28:03.245Z,0.87
2022-08-01T06:31:31.707Z,0.80
2022-08-01T06:34:57.731Z,0.90
2022-08-01T06:38:21.389Z,0.80
2022-08-01T06:41:47.174Z,0.90
2022-08-01T06:45:12.968Z,0.90
2022-08-01T06:48:40.175Z,0.90
2022-08-01T06:52:04.834Z,0.90
2022-08-01T06:55:28.537Z,1.00
2022-08-01T06:58:53.664Z,0.80
2022-08-01T07:02:17.364Z,0.80
2022-08-01T07:05:41.176Z,0.80
2022-08-01T07:09:09.603Z,0.90
2022-08-01T07:12:37.497Z,0.80
2022-08-01T07:16:02.348Z,1.00
2022-08-01T07:19:26.317Z,0.90
2022-08-01T07:22:49.774Z,0.77
2022-08-01T07:26:14.586Z,0.80
2022-08-01T07:29:38.472Z,0.90
2022-08-01T07:33:04.026Z,0.80
2022-08-01T07:36:27.524Z,0.77
2022-08-01T07:39:50.953Z,0.80
2022-08-01T07:43:14.658Z,0.80
2022-08-01T07:46:39.990Z,0.87
2022-08-01T07:50:07.698Z,0.80
2022-08-01T07:53:31.690Z,0.80
2022-08-01T07:56:55.471Z,0.90
2022-08-01T08:00:21.645Z,0.80
2022-08-01T08:03:45.208Z,0.80
2022-08-01T08:07:10.395Z,0.97
2022-08-01T08:10:34.765Z,0.80
2022-08-01T08:13:58.419Z,0.80
2022-08-01T08:17:22.116Z,0.80
2022-08-01T08:20:46.032Z,0.80
2022-08-01T08:24:26.578Z,1.00
2022-08-01T08:27:51.023Z,1.00
2022-08-01T08:31:50.562Z,1.00
2022-08-01T08:34:58.176Z,1.37
2022-08-01T08:38:21.756Z,0.97
2022-08-01T08:41:53.588Z,1.07
2022-08-01T08:45:17.355Z,1.10
2022-08-01T08:48:43.227Z,1.00
2022-08-01T08:52:08.978Z,1.00
2022-08-01T08:55:33.146Z,0.90
2022-08-01T08:59:18.396Z,1.20
2022-08-01T09:02:44.430Z,1.27
2022-08-01T09:06:08.789Z,1.07
2022-08-01T09:09:33.636Z,1.00
2022-08-01T09:13:12.048Z,1.27
2022-08-01T09:16:39.532Z,1.70
2022-08-01T09:20:03.362Z,2.40
2022-08-01T09:23:34.784Z,2.10
2022-08-01T09:26:59.040Z,2.10
2022-08-01T09:30:26.219Z,2.37
2022-08-01T09:33:57.332Z,1.97
2022-08-01T09:37:37.201Z,2.07
2022-08-01T09:41:12.350Z,2.20
2022-08-01T09:44:55.164Z,2.00
2022-08-01T09:48:19.707Z,2.00
2022-08-01T09:52:00.249Z,2.17
2022-08-01T09:55:24.458Z,2.47
2022-08-01T09:58:59.989Z,1.80
2022-08-01T10:02:34.721Z,1.97
2022-08-01T10:05:59.383Z,1.90
2022-08-01T10:09:39.884Z,1.93
2022-08-01T10:13:05.994Z,1.53
2022-08-01T10:16:36.923Z,1.67
2022-08-01T10:20:04.922Z,1.40
2022-08-01T10:23:40.171Z,1.47
2022-08-01T10:27:12.148Z,2.00
2022-08-01T10:30:36.743Z,1.30
2022-08-01T10:34:01.238Z,1.60
2022-08-01T10:37:26.804Z,1.40
2022-08-01T10:40:52.586Z,1.30
2022-08-01T10:44:19.074Z,1.23
2022-08-01T10:47:55.400Z,1.30
2022-08-01T10:51:21.350Z,1.60
2022-08-01T10:54:52.023Z,1.47
2022-08-01T10:58:22.909Z,1.20
2022-08-01T11:01:59.767Z,1.27
2022-08-01T11:05:25.351Z,1.37
2022-08-01T11:08:55.862Z,1.20
2022-08-01T11:12:24.727Z,1.40
2022-08-01T11:15:50.026Z,1.07
2022-08-01T11:19:15.873Z,1.47
2022-08-01T11:23:26.054Z,1.37
2022-08-01T11:27:23.682Z,1.30
2022-08-01T11:30:49.256Z,1.20
2022-08-01T11:34:12.916Z,1.47
2022-08-01T11:37:41.291Z,1.40
2022-08-01T11:41:16.225Z,1.50
2022-08-01T11:44:52.191Z,1.30
2022-08-01T11:48:21.423Z,1.20
2022-08-01T11:51:45.071Z,1.23
2022-08-01T11:55:11.893Z,1.20
2022-08-01T11:58:37.486Z,1.47
2022-08-01T12:02:02.984Z,1.30
2022-08-01T12:05:27.554Z,1.07
2022-08-01T12:08:51.077Z,1.20
2022-08-01T12:12:21.107Z,1.63
2022-08-01T12:15:45.544Z,1.27
2022-08-01T12:19:09.869Z,1.33
2022-08-01T12:22:36.236Z,1.17
2022-08-01T12:26:01.095Z,1.30
2022-08-01T12:29:40.250Z,1.47
2022-08-01T12:33:06.591Z,1.20
2022-08-01T12:36:31.073Z,1.33
2022-08-01T12:39:54.948Z,1.20
2022-08-01T12:43:28.556Z,1.27
2022-08-01T12:46:54.880Z,1.50
2022-08-01T12:50:23.379Z,1.40
2022-08-01T12:53:47.956Z,1.40
2022-08-01T12:57:25.123Z,1.20
2022-08-01T13:00:51.289Z,1.20
2022-08-01T13:04:16.470Z,1.27
2022-08-01T13:07:46.181Z,1.50
2022-08-01T13:11:15.070Z,1.40
2022-08-01T13:14:41.805Z,1.33
2022-08-01T13:18:27.566Z,1.10
2022-08-01T13:21:59.892Z,1.50
2022-08-01T13:25:25.193Z,1.40
2022-08-01T13:29:06.455Z,1.10
2022-08-01T13:32:32.498Z,1.50
2022-08-01T13:35:58.665Z,1.50
2022-08-01T13:39:41.210Z,1.20
2022-08-01T13:43:04.734Z,1.20
2022-08-01T13:46:29.654Z,1.40
2022-08-01T13:49:53.311Z,1.30
2022-08-01T13:53:18.579Z,1.30
2022-08-01T13:56:43.661Z,1.13
2022-08-01T14:00:11.152Z,1.33
2022-08-01T14:03:37.553Z,1.30
2022-08-01T14:07:05.550Z,1.30
2022-08-01T14:10:33.479Z,1.00
2022-08-01T14:13:58.348Z,1.03
2022-08-01T14:17:21.852Z,1.43
2022-08-01T14:20:45.897Z,1.33
2022-08-01T14:24:10.595Z,1.50
2022-08-01T14:27:37.024Z,1.20
2022-08-01T14:31:02.320Z,1.20
2022-08-01T14:34:25.859Z,1.20
2022-08-01T14:37:49.500Z,1.20
2022-08-01T14:41:13.261Z,1.13
2022-08-01T14:44:36.751Z,1.27
2022-08-01T14:48:09.786Z,1.30
2022-08-01T14:51:35.381Z,1.30
2022-08-01T14:54:59.115Z,1.40
2022-08-01T14:58:22.737Z,1.10
2022-08-01T15:01:46.242Z,1.10
2022-08-01T15:05:12.927Z,1.10
2022-08-01T15:08:36.434Z,1.00
2022-08-01T15:12:00.549Z,1.27
2022-08-01T15:15:26.047Z,1.00
2022-08-01T15:18:49.544Z,0.90
2022-08-01T15:22:14.656Z,0.90
2022-08-01T15:25:40.420Z,0.97
2022-08-01T15:29:05.540Z,0.90
2022-08-01T15:32:29.292Z,1.60
2022-08-01T15:35:53.779Z,1.13
2022-08-01T15:39:19.335Z,1.10
2022-08-01T15:42:43.106Z,1.30
2022-08-01T15:46:06.783Z,1.00
2022-08-01T15:49:30.915Z,1.10
2022-08-01T15:52:54.523Z,1.20
2022-08-01T15:56:19.398Z,1.40
2022-08-01T15:59:42.919Z,1.30
2022-08-01T16:03:06.456Z,1.47
2022-08-01T16:06:30.593Z,1.23
2022-08-01T16:09:54.433Z,1.30
2022-08-01T16:13:19.387Z,1.00
2022-08-01T16:16:43.226Z,1.40
2022-08-01T16:20:12.447Z,1.30
2022-08-01T16:23:35.949Z,1.10
2022-08-01T16:26:59.588Z,1.00
2022-08-01T16:30:24.747Z,1.10
2022-08-01T16:33:53.980Z,1.20
2022-08-01T16:37:19.207Z,1.10
2022-08-01T16:40:47.149Z,1.13
2022-08-01T16:44:11.572Z,1.00
2022-08-01T16:47:36.491Z,0.90
2022-08-01T16:50:59.942Z,1.17
2022-08-01T16:54:25.815Z,1.20
2022-08-01T16:57:51.239Z,1.10
2022-08-01T17:01:58.316Z,1.00
2022-08-01T17:05:00.145Z,1.10
2022-08-01T17:08:30.659Z,1.10
2022-08-01T17:11:54.515Z,1.10
2022-08-01T17:15:18.370Z,1.00
2022-08-01T17:18:42.103Z,1.10
2022-08-01T17:22:07.340Z,0.90
2022-08-01T17:25:31.374Z,1.00
2022-08-01T17:28:54.881Z,1.00
2022-08-01T17:32:18.762Z,1.00
2022-08-01T17:35:42.623Z,1.10
2022-08-01T17:39:08.732Z,1.00
2022-08-01T17:42:32.599Z,0.90
2022-08-01T17:45:57.614Z,1.03
2022-08-01T17:49:45.243Z,1.00
2022-08-01T17:53:06.031Z,1.10
2022-08-01T17:56:34.749Z,1.10
2022-08-01T18:00:01.107Z,1.03
2022-08-01T18:03:30.377Z,1.00
2022-08-01T18:06:58.197Z,0.83
2022-08-01T18:10:22.934Z,0.80
2022-08-01T18:13:50.823Z,0.80
2022-08-01T18:17:14.982Z,0.90
2022-08-01T18:20:38.932Z,1.00
2022-08-01T18:24:02.839Z,0.80
2022-08-01T18:28:23.471Z,0.70
2022-08-01T18:31:16.471Z,0.90
2022-08-01T18:34:40.486Z,0.90
2022-08-01T18:38:04.296Z,0.90
2022-08-01T18:41:28.330Z,0.87
2022-08-01T18:44:52.319Z,0.83
2022-08-01T18:48:17.178Z,0.90
2022-08-01T18:51:44.730Z,0.90
2022-08-01T18:55:09.448Z,0.93
2022-08-01T18:58:32.890Z,0.90
2022-08-01T19:01:56.464Z,0.80
2022-08-01T19:05:21.628Z,0.90
2022-08-01T19:08:46.025Z,0.97
2022-08-01T19:12:10.293Z,0.90
2022-08-01T19:15:34.340Z,0.90
2022-08-01T19:18:58.362Z,1.10
2022-08-01T19:22:23.333Z,1.10
2022-08-01T19:25:55.246Z,1.00
2022-08-01T19:29:23.553Z,0.90
2022-08-01T19:32:59.819Z,0.90
2022-08-01T19:36:24.800Z,0.90
2022-08-01T19:39:49.811Z,0.80
2022-08-01T19:43:14.527Z,0.90
2022-08-01T19:46:40.166Z,0.90
2022-08-01T19:50:03.887Z,0.83
2022-08-01T19:53:27.671Z,0.80
2022-08-01T19:56:55.234Z,0.90
2022-08-01T20:00:23.826Z,1.00
2022-08-01T20:03:52.410Z,0.90
2022-08-01T20:07:18.798Z,0.90
2022-08-01T20:10:43.044Z,1.00
2022-08-01T20:14:07.913Z,1.00
2022-08-01T20:17:31.439Z,1.00
2022-08-01T20:20:56.221Z,0.90
2022-08-01T20:24:23.156Z,0.80
2022-08-01T20:27:50.643Z,0.90
2022-08-01T20:31:17.969Z,0.87
2022-08-01T20:34:41.887Z,0.90
2022-08-01T20:38:07.287Z,1.00
2022-08-01T20:41:31.664Z,0.90
2022-08-01T20:44:57.328Z,0.90
2022-08-01T20:48:22.972Z,0.90
2022-08-01T20:51:48.828Z,0.90
2022-08-01T20:55:12.421Z,0.90
2022-08-01T20:58:58.007Z,1.03
2022-08-01T21:02:42.493Z,1.00
2022-08-01T21:06:14.710Z,1.00
2022-08-01T21:09:39.961Z,0.90
2022-08-01T21:13:07.415Z,0.93
2022-08-01T21:16:38.893Z,1.00
2022-08-01T21:20:07.476Z,1.00
2022-08-01T21:23:43.314Z,1.10
2022-08-01T21:27:07.731Z,0.90
2022-08-01T21:30:34.359Z,0.93
2022-08-01T21:34:03.798Z,0.90
2022-08-01T21:37:30.788Z,0.80
2022-08-01T21:40:56.680Z,1.13
2022-08-01T21:44:21.022Z,1.00
2022-08-01T21:47:45.415Z,1.00
2022-08-01T21:51:38.517Z,1.10
2022-08-01T21:55:15.754Z,1.10
2022-08-01T21:58:52.862Z,1.00
2022-08-01T22:02:26.553Z,0.90
2022-08-01T22:05:54.806Z,1.13
2022-08-01T22:09:22.033Z,0.80
2022-08-01T22:12:47.538Z,0.97
2022-08-01T22:16:15.334Z,0.80
2022-08-01T22:19:45.436Z,0.90
2022-08-01T22:23:11.345Z,0.80
2022-08-01T22:26:39.656Z,0.90
2022-08-01T22:30:07.317Z,0.80
2022-08-01T22:33:36.307Z,0.80
2022-08-01T22:37:00.018Z,1.10
2022-08-01T22:40:25.320Z,0.83
2022-08-01T22:44:01.267Z,0.73
2022-08-01T22:47:47.857Z,0.90
2022-08-01T22:51:32.790Z,0.80
2022-08-01T22:55:04.228Z,0.70
2022-08-01T22:58:31.813Z,0.80
2022-08-01T23:01:56.042Z,0.70
2022-08-01T23:05:25.423Z,0.90
2022-08-01T23:08:51.241Z,0.80
2022-08-01T23:12:15.296Z,0.70
2022-08-01T23:15:41.401Z,0.73
2022-08-01T23:19:17.688Z,0.80
2022-08-01T23:22:42.796Z,1.00
2022-08-01T23:26:08.424Z,0.87
2022-08-01T23:29:32.347Z,0.80
2022-08-01T23:32:57.009Z,0.70
2022-08-01T23:36:20.549Z,0.70
2022-08-01T23:39:45.132Z,0.80
2022-08-01T23:43:16.976Z,0.83
2022-08-01T23:46:41.260Z,0.80
2022-08-01T23:50:05.346Z,0.87
2022-08-01T23:53:30.549Z,0.80
2022-08-01T23:56:55.684Z,0.70
